createdAt,value
2018-02-23T00:01:26.085Z,52.60
2018-02-23T00:03:54.226Z,52.40
2018-02-23T00:06:22.359Z,52.10
2018-02-23T00:08:50.470Z,52.30
2018-02-23T00:11:18.804Z,52.40
2018-02-23T00:13:46.940Z,52.10
2018-02-23T00:16:15.046Z,52.40
2018-02-23T00:18:43.929Z,52.00
2018-02-23T00:21:12.836Z,52.30
2018-02-23T00:23:41.818Z,52.20
2018-02-23T00:26:09.986Z,52.20
2018-02-23T00:28:38.064Z,52.50
2018-02-23T00:31:06.969Z,52.40
2018-02-23T00:33:35.116Z,52.40
2018-02-23T00:36:03.984Z,52.10
2018-02-23T00:38:32.104Z,52.10
2018-02-23T00:41:00.248Z,52.20
2018-02-23T00:43:29.152Z,52.20
2018-02-23T00:45:58.035Z,52.10
2018-02-23T00:48:26.935Z,52.40
2018-02-23T00:50:55.111Z,52.40
2018-02-23T00:53:23.243Z,52.20
2018-02-23T00:55:51.367Z,52.10
2018-02-23T00:58:19.523Z,52.10
2018-02-23T01:00:48.399Z,52.00
2018-02-23T01:03:17.514Z,51.90
2018-02-23T01:05:46.387Z,51.90
2018-02-23T01:08:15.291Z,51.80
2018-02-23T01:10:43.427Z,51.80
2018-02-23T01:13:11.571Z,51.70
2018-02-23T01:15:39.708Z,52.00
2018-02-23T01:18:08.583Z,51.80
2018-02-23T01:20:37.493Z,52.00
2018-02-23T01:23:05.663Z,52.00
2018-02-23T01:25:33.783Z,51.90
2018-02-23T01:28:01.943Z,51.80
2018-02-23T01:30:30.020Z,51.70
2018-02-23T01:32:58.163Z,51.50
2018-02-23T01:35:26.308Z,51.70
2018-02-23T01:37:54.513Z,51.50
2018-02-23T01:40:22.627Z,51.60
2018-02-23T01:42:50.851Z,51.30
2018-02-23T01:45:18.980Z,51.60
2018-02-23T01:47:47.091Z,51.50
2018-02-23T01:50:15.203Z,51.50
2018-02-23T01:52:43.427Z,51.90
2018-02-23T01:55:11.561Z,52.00
2018-02-23T01:57:39.679Z,51.90
2018-02-23T02:00:07.793Z,52.10
2018-02-23T02:02:35.946Z,52.40
2018-02-23T02:05:04.084Z,52.20
2018-02-23T02:07:32.979Z,52.70
2018-02-23T02:10:01.107Z,52.70
2018-02-23T02:12:29.229Z,52.60
2018-02-23T02:14:57.426Z,52.40
2018-02-23T02:17:25.543Z,52.70
2018-02-23T02:19:53.659Z,52.80
2018-02-23T02:22:21.805Z,52.70
2018-02-23T02:24:50.915Z,52.90
2018-02-23T02:27:19.042Z,52.90
2018-02-23T02:29:47.147Z,52.90
2018-02-23T02:32:15.282Z,53.10
2018-02-23T02:34:43.415Z,53.40
2018-02-23T02:37:11.538Z,53.60
2018-02-23T02:39:39.746Z,53.00
2018-02-23T02:42:07.874Z,53.60
2018-02-23T02:44:36.015Z,53.10
2018-02-23T02:47:04.161Z,53.60
2018-02-23T02:49:32.289Z,52.90
2018-02-23T02:52:00.461Z,53.80
2018-02-23T02:54:28.583Z,53.60
2018-02-23T02:56:56.703Z,53.70
2018-02-23T02:59:24.820Z,53.90
2018-02-23T03:01:52.954Z,54.40
2018-02-23T03:04:21.082Z,54.00
2018-02-23T03:06:49.198Z,53.80
2018-02-23T03:09:17.339Z,54.90
2018-02-23T03:11:45.482Z,54.40
2018-02-23T03:14:13.636Z,54.60
2018-02-23T03:16:42.514Z,54.90
2018-02-23T03:19:10.711Z,54.90
2018-02-23T03:21:39.624Z,54.90
2018-02-23T03:24:07.785Z,54.90
2018-02-23T03:26:35.946Z,54.70
2018-02-23T03:29:04.834Z,54.50
2018-02-23T03:31:33.719Z,54.80
2018-02-23T03:34:02.732Z,55.00
2018-02-23T03:36:30.894Z,55.00
2018-02-23T03:38:59.014Z,55.00
2018-02-23T03:41:27.128Z,54.80
2018-02-23T03:43:56.152Z,54.80
2018-02-23T03:46:24.308Z,54.80
2018-02-23T03:48:52.480Z,54.50
2018-02-23T03:51:20.598Z,55.70
2018-02-23T03:53:48.724Z,55.30
2018-02-23T03:56:16.862Z,55.50
2018-02-23T03:58:45.752Z,55.60
2018-02-23T04:01:13.964Z,55.50
2018-02-23T04:03:42.138Z,55.30
2018-02-23T04:06:10.275Z,55.30
2018-02-23T04:08:38.398Z,54.90
2018-02-23T04:11:06.552Z,56.00
2018-02-23T04:13:34.932Z,55.20
2018-02-23T04:16:03.102Z,55.90
2018-02-23T04:18:31.276Z,55.50
2018-02-23T04:20:59.404Z,55.70
2018-02-23T04:23:27.539Z,55.90
2018-02-23T04:25:55.692Z,55.20
2018-02-23T04:28:23.812Z,55.00
2018-02-23T04:30:51.947Z,55.40
2018-02-23T04:33:20.083Z,55.50
2018-02-23T04:35:48.219Z,56.10
2018-02-23T04:38:16.359Z,56.30
2018-02-23T04:40:44.531Z,55.00
2018-02-23T04:43:12.667Z,55.00
2018-02-23T04:45:40.792Z,55.20
2018-02-23T04:48:08.906Z,55.20
2018-02-23T04:50:37.122Z,55.60
2018-02-23T04:53:05.247Z,56.10
2018-02-23T04:55:33.387Z,56.40
2018-02-23T04:58:01.508Z,55.30
2018-02-23T05:00:29.619Z,55.10
2018-02-23T05:02:57.754Z,55.60
2018-02-23T05:05:26.666Z,55.60
2018-02-23T05:07:54.784Z,55.60
2018-02-23T05:10:22.911Z,56.50
2018-02-23T05:12:51.047Z,55.80
2018-02-23T05:15:19.195Z,56.60
2018-02-23T05:17:47.326Z,55.50
2018-02-23T05:20:16.203Z,56.30
2018-02-23T05:22:45.133Z,56.10
2018-02-23T05:25:13.487Z,56.20
2018-02-23T05:27:41.678Z,56.20
2018-02-23T05:30:09.795Z,55.70
2018-02-23T05:32:37.935Z,56.40
2018-02-23T05:35:06.074Z,56.70
2018-02-23T05:37:34.225Z,56.70
2018-02-23T05:40:03.109Z,57.90
2018-02-23T05:42:31.311Z,57.90
2018-02-23T05:44:59.471Z,58.30
2018-02-23T05:47:28.370Z,57.60
2018-02-23T05:49:56.499Z,57.70
2018-02-23T05:52:24.622Z,58.30
2018-02-23T05:54:52.759Z,58.30
2018-02-23T05:57:20.985Z,59.00
2018-02-23T05:59:49.084Z,58.50
2018-02-23T06:02:17.232Z,58.00
2018-02-23T06:04:45.344Z,57.80
2018-02-23T06:07:13.476Z,58.50
2018-02-23T06:09:41.619Z,60.20
2018-02-23T06:12:09.742Z,59.20
2018-02-23T06:14:37.972Z,59.30
2018-02-23T06:17:11.761Z,59.20
2018-02-23T06:19:46.501Z,58.50
2018-02-23T06:22:14.639Z,58.50
2018-02-23T06:24:42.797Z,58.60
2018-02-23T06:27:10.944Z,59.00
2018-02-23T06:29:39.074Z,58.50
2018-02-23T06:32:07.944Z,59.50
2018-02-23T06:34:36.075Z,58.90
2018-02-23T06:37:04.214Z,59.40
2018-02-23T06:39:32.394Z,58.20
2018-02-23T06:42:00.570Z,59.00
2018-02-23T06:44:28.745Z,58.40
2018-02-23T06:47:02.526Z,59.50
2018-02-23T06:49:31.424Z,58.10
2018-02-23T06:52:00.346Z,59.60
2018-02-23T06:54:28.464Z,59.50
2018-02-23T06:56:56.616Z,58.20
2018-02-23T06:59:24.739Z,59.00
2018-02-23T07:01:52.852Z,59.40
2018-02-23T07:04:20.995Z,59.00
2018-02-23T07:06:49.252Z,59.40
2018-02-23T07:09:18.254Z,59.30
2018-02-23T07:11:46.428Z,59.40
2018-02-23T07:14:14.561Z,59.00
2018-02-23T07:16:42.696Z,59.30
2018-02-23T07:19:10.844Z,59.00
2018-02-23T07:21:38.989Z,59.30
2018-02-23T07:24:07.188Z,59.30
2018-02-23T07:26:35.358Z,58.90
2018-02-23T07:29:04.294Z,59.00
2018-02-23T07:31:32.418Z,59.00
2018-02-23T07:34:01.391Z,58.90
2018-02-23T07:36:30.025Z,58.90
2018-02-23T07:38:58.204Z,59.20
2018-02-23T07:41:26.356Z,59.00
2018-02-23T07:43:54.523Z,59.70
2018-02-23T07:46:24.096Z,60.50
2018-02-23T07:48:52.549Z,60.50
2018-02-23T07:51:21.088Z,59.20
2018-02-23T07:53:49.404Z,59.10
2018-02-23T07:56:17.912Z,59.90
2018-02-23T07:58:46.008Z,59.20
2018-02-23T08:01:15.123Z,59.80
2018-02-23T08:03:44.111Z,59.40
2018-02-23T08:06:12.299Z,59.30
2018-02-23T08:08:40.592Z,59.60
2018-02-23T08:11:08.750Z,59.60
2018-02-23T08:13:38.182Z,59.30
2018-02-23T08:16:06.619Z,59.30
2018-02-23T08:18:35.085Z,59.30
2018-02-23T08:21:03.985Z,59.70
2018-02-23T08:23:32.707Z,59.60
2018-02-23T08:26:01.128Z,59.20
2018-02-23T08:28:30.047Z,59.90
2018-02-23T08:30:59.101Z,59.10
2018-02-23T08:33:28.023Z,58.60
2018-02-23T08:35:56.225Z,58.60
2018-02-23T08:38:25.011Z,58.80
2018-02-23T08:40:54.083Z,59.00
2018-02-23T08:43:22.199Z,59.00
2018-02-23T08:45:50.419Z,59.20
2018-02-23T08:48:18.601Z,58.70
2018-02-23T08:50:46.767Z,58.70
2018-02-23T08:53:14.883Z,58.30
2018-02-23T08:55:43.035Z,58.40
2018-02-23T08:58:11.436Z,58.00
2018-02-23T09:00:47.944Z,58.00
2018-02-23T09:03:17.746Z,57.70
2018-02-23T09:05:46.655Z,57.70
2018-02-23T09:08:15.098Z,57.70
2018-02-23T09:10:43.355Z,57.30
2018-02-23T09:13:11.665Z,57.50
2018-02-23T09:15:39.832Z,57.40
2018-02-23T09:18:08.054Z,57.30
2018-02-23T09:20:36.175Z,57.20
2018-02-23T09:23:05.126Z,56.70
2018-02-23T09:25:33.301Z,56.70
2018-02-23T09:28:01.581Z,56.50
2018-02-23T09:30:30.773Z,56.60
2018-02-23T09:32:59.925Z,56.50
2018-02-23T09:35:28.976Z,56.70
2018-02-23T09:37:57.266Z,56.60
2018-02-23T09:40:25.866Z,56.20
2018-02-23T09:42:54.355Z,56.50
2018-02-23T09:45:23.301Z,55.70
2018-02-23T09:47:51.608Z,55.70
2018-02-23T09:50:19.764Z,55.60
2018-02-23T09:52:47.852Z,55.40
2018-02-23T09:55:16.776Z,55.80
2018-02-23T09:57:44.946Z,55.80
2018-02-23T10:00:13.118Z,55.00
2018-02-23T10:02:42.046Z,54.50
2018-02-23T10:05:10.288Z,54.40
2018-02-23T10:07:39.330Z,53.50
2018-02-23T10:10:07.466Z,53.60
2018-02-23T10:12:37.915Z,53.80
2018-02-23T10:15:06.068Z,54.30
2018-02-23T10:17:34.664Z,53.50
2018-02-23T10:20:03.757Z,52.90
2018-02-23T10:22:31.930Z,53.30
2018-02-23T10:25:00.510Z,52.60
2018-02-23T10:27:28.874Z,52.60
2018-02-23T10:29:57.048Z,53.00
2018-02-23T10:32:25.504Z,52.90
2018-02-23T10:34:54.596Z,52.70
2018-02-23T10:37:24.214Z,52.90
2018-02-23T10:39:53.131Z,52.50
2018-02-23T10:42:21.780Z,52.50
2018-02-23T10:44:50.717Z,51.40
2018-02-23T10:47:18.988Z,51.30
2018-02-23T10:49:47.937Z,51.30
2018-02-23T10:52:16.254Z,51.10
2018-02-23T10:54:44.504Z,51.40
2018-02-23T10:57:12.979Z,50.50
2018-02-23T10:59:41.839Z,49.70
2018-02-23T11:02:10.499Z,50.40
2018-02-23T11:04:38.685Z,50.30
2018-02-23T11:07:06.815Z,50.50
2018-02-23T11:09:34.926Z,50.40
2018-02-23T11:12:03.055Z,50.70
2018-02-23T11:14:31.801Z,51.20
2018-02-23T11:16:59.911Z,51.20
2018-02-23T11:19:29.771Z,50.70
2018-02-23T11:21:57.884Z,50.70
2018-02-23T11:24:25.999Z,51.20
2018-02-23T11:26:54.572Z,51.60
2018-02-23T11:29:22.742Z,49.00
2018-02-23T11:31:51.035Z,48.80
2018-02-23T11:34:19.123Z,49.70
2018-02-23T11:36:47.467Z,49.30
2018-02-23T11:39:15.616Z,49.70
2018-02-23T11:41:43.787Z,49.70
2018-02-23T11:44:12.089Z,48.10
2018-02-23T11:46:40.443Z,46.90
2018-02-23T11:49:08.615Z,46.80
2018-02-23T11:51:37.503Z,47.10
2018-02-23T11:54:05.672Z,47.10
2018-02-23T11:56:33.851Z,47.50
2018-02-23T11:59:01.999Z,45.40
2018-02-23T12:01:30.887Z,45.10
2018-02-23T12:03:59.086Z,45.00
2018-02-23T12:06:27.259Z,46.00
2018-02-23T12:08:55.427Z,46.40
2018-02-23T12:11:24.359Z,45.70
2018-02-23T12:13:52.470Z,45.70
2018-02-23T12:16:20.589Z,45.60
2018-02-23T12:18:48.731Z,46.60
2018-02-23T12:21:17.642Z,45.50
2018-02-23T12:23:46.544Z,46.50
2018-02-23T12:26:14.646Z,46.50
2018-02-23T12:28:42.794Z,45.70
2018-02-23T12:31:10.930Z,44.10
2018-02-23T12:33:39.111Z,45.30
2018-02-23T12:36:07.267Z,45.00
2018-02-23T12:38:36.166Z,46.70
2018-02-23T12:41:05.045Z,45.00
2018-02-23T12:43:33.968Z,44.30
2018-02-23T12:46:02.152Z,44.30
2018-02-23T12:48:30.505Z,45.40
2018-02-23T12:50:58.615Z,44.70
2018-02-23T12:53:26.748Z,44.20
2018-02-23T12:55:54.950Z,43.70
2018-02-23T12:58:23.088Z,44.50
2018-02-23T13:00:51.992Z,43.80
2018-02-23T13:03:20.150Z,43.80
2018-02-23T13:05:48.287Z,44.00
2018-02-23T13:08:16.426Z,45.20
2018-02-23T13:10:44.602Z,44.90
2018-02-23T13:13:12.691Z,43.70
2018-02-23T13:15:40.902Z,43.90
2018-02-23T13:18:09.028Z,44.30
2018-02-23T13:20:37.128Z,43.20
2018-02-23T13:23:05.248Z,42.90
2018-02-23T13:25:33.373Z,42.90
2018-02-23T13:28:07.292Z,44.70
2018-02-23T13:30:36.171Z,45.10
2018-02-23T13:33:04.280Z,45.00
2018-02-23T13:35:32.478Z,43.10
2018-02-23T13:38:00.617Z,42.60
2018-02-23T13:40:31.348Z,42.10
2018-02-23T13:43:00.256Z,41.80
2018-02-23T13:45:28.375Z,41.90
2018-02-23T13:47:56.503Z,40.90
2018-02-23T13:50:24.612Z,43.00
2018-02-23T13:52:54.240Z,43.10
2018-02-23T13:55:22.471Z,43.10
2018-02-23T13:57:50.651Z,43.30
2018-02-23T14:00:18.803Z,41.40
2018-02-23T14:02:46.908Z,42.00
2018-02-23T14:05:15.056Z,41.60
2018-02-23T14:07:43.186Z,41.00
2018-02-23T14:10:12.087Z,41.60
2018-02-23T14:12:41.091Z,41.60
2018-02-23T14:15:09.227Z,40.90
2018-02-23T14:17:38.879Z,41.60
2018-02-23T14:20:07.070Z,41.50
2018-02-23T14:22:35.156Z,41.40
2018-02-23T14:25:03.264Z,40.90
2018-02-23T14:27:31.399Z,40.20
2018-02-23T14:29:59.560Z,40.80
2018-02-23T14:32:27.688Z,41.10
2018-02-23T14:34:56.555Z,41.10
2018-02-23T14:37:24.696Z,41.00
2018-02-23T14:39:52.831Z,39.90
2018-02-23T14:42:21.727Z,39.80
2018-02-23T14:44:50.032Z,39.70
2018-02-23T14:47:18.204Z,39.50
2018-02-23T14:49:58.311Z,40.20
2018-02-23T14:52:27.206Z,40.30
2018-02-23T14:54:56.144Z,40.20
2018-02-23T14:57:24.256Z,40.20
2018-02-23T14:59:53.189Z,41.10
2018-02-23T15:02:22.576Z,40.50
2018-02-23T15:04:50.707Z,40.40
2018-02-23T15:07:18.863Z,40.70
2018-02-23T15:09:46.991Z,40.90
2018-02-23T15:12:15.163Z,39.70
2018-02-23T15:14:44.064Z,39.80
2018-02-23T15:17:12.230Z,39.80
2018-02-23T15:19:40.387Z,39.10
2018-02-23T15:22:09.423Z,38.20
2018-02-23T15:24:37.511Z,38.20
2018-02-23T15:27:05.636Z,39.10
2018-02-23T15:29:34.527Z,39.70
2018-02-23T15:32:29.539Z,39.60
2018-02-23T15:34:57.715Z,38.90
2018-02-23T15:37:25.825Z,39.00
2018-02-23T15:39:53.990Z,39.10
2018-02-23T15:42:22.091Z,38.90
2018-02-23T15:44:51.008Z,39.70
2018-02-23T15:50:35.235Z,39.40
2018-02-23T15:53:04.873Z,40.80
2018-02-23T15:55:33.769Z,40.30
2018-02-23T15:58:13.492Z,39.20
2018-02-23T16:00:41.621Z,39.30
2018-02-23T16:03:09.747Z,40.20
2018-02-23T16:05:38.627Z,38.90
2018-02-23T16:08:06.764Z,38.80
2018-02-23T16:10:35.324Z,39.30
2018-02-23T16:13:03.455Z,39.20
2018-02-23T16:15:31.575Z,39.00
2018-02-23T16:17:59.717Z,39.50
2018-02-23T16:20:28.601Z,39.30
2018-02-23T16:22:57.501Z,39.90
2018-02-23T16:25:26.375Z,40.50
2018-02-23T16:27:54.496Z,40.50
2018-02-23T16:30:22.651Z,40.20
2018-02-23T16:32:50.815Z,39.40
2018-02-23T16:35:19.691Z,40.00
2018-02-23T16:37:48.599Z,39.70
2018-02-23T16:40:16.751Z,39.70
2018-02-23T16:42:45.622Z,40.90
2018-02-23T16:45:13.730Z,40.90
2018-02-23T16:47:41.897Z,40.90
2018-02-23T16:50:10.047Z,40.70
2018-02-23T16:52:38.249Z,40.70
2018-02-23T16:55:06.373Z,41.20
2018-02-23T16:57:34.486Z,41.20
2018-02-23T17:00:02.635Z,40.80
2018-02-23T17:02:30.843Z,39.90
2018-02-23T17:04:58.980Z,40.60
2018-02-23T17:07:27.128Z,40.30
2018-02-23T17:09:55.242Z,41.00
2018-02-23T17:12:24.122Z,40.00
2018-02-23T17:14:53.004Z,41.10
2018-02-23T17:17:21.122Z,40.50
2018-02-23T17:19:49.254Z,41.00
2018-02-23T17:22:17.362Z,41.20
2018-02-23T17:24:45.488Z,40.70
2018-02-23T17:27:13.644Z,40.90
2018-02-23T17:29:41.872Z,41.70
2018-02-23T17:32:10.017Z,41.50
2018-02-23T17:34:38.214Z,41.00
2018-02-23T17:37:07.084Z,41.60
2018-02-23T17:39:35.975Z,42.20
2018-02-23T17:42:04.112Z,41.60
2018-02-23T17:44:32.227Z,41.60
2018-02-23T17:47:01.144Z,40.80
2018-02-23T17:49:29.332Z,40.80
2018-02-23T17:51:57.440Z,41.10
2018-02-23T17:54:25.564Z,40.60
2018-02-23T17:56:53.667Z,41.40
2018-02-23T17:59:21.887Z,42.30
2018-02-23T18:01:50.884Z,41.60
2018-02-23T18:04:19.768Z,41.60
2018-02-23T18:06:48.641Z,41.90
2018-02-23T18:09:17.541Z,41.60
2018-02-23T18:11:46.547Z,42.20
2018-02-23T18:14:15.440Z,41.70
2018-02-23T18:16:44.341Z,41.50
2018-02-23T18:19:12.501Z,41.50
2018-02-23T18:21:40.666Z,41.50
2018-02-23T18:24:09.539Z,42.00
2018-02-23T18:26:37.736Z,42.00
2018-02-23T18:29:05.859Z,42.00
2018-02-23T18:31:33.985Z,41.60
2018-02-23T18:34:02.107Z,42.10
2018-02-23T18:36:30.211Z,41.70
2018-02-23T18:38:59.123Z,42.20
2018-02-23T18:41:27.261Z,42.20
2018-02-23T18:43:55.465Z,41.80
2018-02-23T18:46:23.581Z,41.90
2018-02-23T18:48:51.705Z,42.40
2018-02-23T18:51:20.694Z,42.80
2018-02-23T18:53:49.589Z,41.90
2018-02-23T18:56:18.479Z,42.00
2018-02-23T18:58:46.605Z,42.00
2018-02-23T19:01:14.731Z,41.70
2018-02-23T19:03:42.896Z,41.40
2018-02-23T19:06:11.776Z,41.70
2018-02-23T19:08:40.681Z,42.20
2018-02-23T19:11:08.833Z,42.10
2018-02-23T19:13:36.905Z,42.20
2018-02-23T19:16:05.805Z,42.00
2018-02-23T19:18:34.694Z,42.10
2018-02-23T19:21:03.620Z,42.60
2018-02-23T19:23:31.712Z,42.60
2018-02-23T19:25:59.837Z,42.90
2018-02-23T19:28:28.707Z,43.20
2018-02-23T19:30:57.615Z,43.20
2018-02-23T19:33:25.738Z,43.20
2018-02-23T19:35:53.855Z,43.20
2018-02-23T19:38:22.739Z,43.10
2018-02-23T19:40:51.618Z,43.30
2018-02-23T19:43:20.523Z,43.20
2018-02-23T19:45:49.420Z,43.80
2018-02-23T19:48:17.533Z,43.60
2018-02-23T19:50:45.754Z,43.70
2018-02-23T19:53:14.650Z,43.50
2018-02-23T19:55:43.644Z,43.60
2018-02-23T19:58:12.510Z,43.70
2018-02-23T20:00:40.654Z,43.70
2018-02-23T20:03:08.759Z,43.60
2018-02-23T20:05:37.639Z,43.60
2018-02-23T20:08:05.764Z,43.70
2018-02-23T20:10:33.902Z,44.20
2018-02-23T20:13:02.788Z,43.80
2018-02-23T20:15:31.689Z,44.00
2018-02-23T20:18:00.731Z,44.00
2018-02-23T20:20:29.680Z,44.10
2018-02-23T20:22:58.558Z,44.30
2018-02-23T20:25:27.502Z,44.20
2018-02-23T20:27:55.626Z,44.30
2018-02-23T20:30:24.560Z,45.00
2018-02-23T20:32:52.688Z,44.40
2018-02-23T20:35:20.865Z,44.40
2018-02-23T20:37:49.008Z,44.50
2018-02-23T20:40:17.155Z,44.50
2018-02-23T20:42:45.282Z,44.60
2018-02-23T20:45:13.454Z,44.80
2018-02-23T20:47:42.334Z,44.70
2018-02-23T20:50:11.242Z,44.90
2018-02-23T20:52:39.357Z,44.80
2018-02-23T20:55:07.484Z,44.80
2018-02-23T20:57:35.652Z,44.80
2018-02-23T21:00:04.540Z,44.90
2018-02-23T21:02:33.434Z,44.90
2018-02-23T21:05:02.312Z,44.70
2018-02-23T21:07:31.183Z,44.80
2018-02-23T21:10:00.824Z,45.00
2018-02-23T21:12:28.940Z,45.00
2018-02-23T21:14:57.045Z,44.80
2018-02-23T21:17:25.953Z,45.30
2018-02-23T21:19:54.859Z,44.90
2018-02-23T21:22:23.726Z,45.00
2018-02-23T21:24:52.622Z,44.90
2018-02-23T21:27:21.520Z,44.80
2018-02-23T21:29:49.652Z,44.80
2018-02-23T21:32:17.766Z,44.80
2018-02-23T21:34:45.927Z,44.80
2018-02-23T21:37:14.820Z,45.10
2018-02-23T21:39:43.699Z,45.10
2018-02-23T21:42:12.644Z,45.10
2018-02-23T21:44:47.398Z,45.30
2018-02-23T21:47:15.532Z,45.20
2018-02-23T21:49:43.675Z,45.40
2018-02-23T21:52:11.792Z,45.30
2018-02-23T21:54:39.912Z,45.40
2018-02-23T21:57:08.088Z,45.40
2018-02-23T21:59:36.227Z,45.50
2018-02-23T22:02:04.369Z,45.60
2018-02-23T22:04:32.487Z,45.50
2018-02-23T22:07:00.691Z,45.60
2018-02-23T22:09:28.827Z,46.40
2018-02-23T22:11:56.956Z,45.80
2018-02-23T22:14:25.082Z,46.00
2018-02-23T22:16:54.006Z,46.00
2018-02-23T22:19:22.123Z,46.00
2018-02-23T22:21:50.336Z,45.90
2018-02-23T22:24:19.227Z,46.00
2018-02-23T22:26:47.371Z,46.00
2018-02-23T22:29:15.491Z,46.00
2018-02-23T22:31:43.639Z,46.00
2018-02-23T22:34:12.536Z,46.30
2018-02-23T22:36:40.661Z,46.30
2018-02-23T22:39:08.794Z,46.30
2018-02-23T22:41:36.935Z,46.50
2018-02-23T22:44:05.845Z,46.70
2018-02-23T22:46:33.966Z,46.60
2018-02-23T22:49:02.128Z,46.80
2018-02-23T22:51:30.371Z,47.00
2018-02-23T22:53:59.243Z,46.90
2018-02-23T22:56:28.145Z,47.10
2018-02-23T22:58:56.284Z,47.00
2018-02-23T23:01:25.923Z,46.80
2018-02-23T23:03:54.053Z,46.80
2018-02-23T23:06:22.166Z,47.00
2018-02-23T23:08:50.339Z,47.00
2018-02-23T23:11:19.215Z,47.40
2018-02-23T23:13:48.097Z,47.40
2018-02-23T23:16:16.991Z,47.70
2018-02-23T23:18:45.909Z,47.60
2018-02-23T23:21:14.072Z,47.60
2018-02-23T23:23:42.196Z,47.60
2018-02-23T23:26:10.419Z,48.00
2018-02-23T23:28:38.567Z,47.90
2018-02-23T23:31:07.481Z,48.20
2018-02-23T23:33:35.603Z,48.20
2018-02-23T23:36:03.818Z,48.90
2018-02-23T23:38:32.710Z,48.30
2018-02-23T23:41:00.884Z,48.30
2018-02-23T23:43:29.026Z,48.60
2018-02-23T23:45:57.228Z,48.20
2018-02-23T23:48:26.108Z,48.70
2018-02-23T23:50:55.003Z,48.80
2018-02-23T23:53:23.910Z,48.70
2018-02-23T23:55:52.071Z,48.70
2018-02-23T23:58:20.964Z,48.90
